»·PEaware :: N172CM KBLI-C72

N172CM :: KBLI-C72

FLIGHT INFORMATION

Flight Status: Arrived
Operator: Privately registered:
United States
More flights under this callsign
Pilot: John F. (11196)
Aircraft: CESSNA 172 SKYHAWK
(C172)
More flights by this aircraft type
Origin: KBLI Bellingham Intl
United States
Destination: C72 Cross Winds
United States
More flights between these airports :: More routes between these airports
Route: CRNEL T332 ROZTY
File this flight plan on PilotEdge
Remarks:
Altitude:
(Current/Filed)
11,500ft
Speed:
(Current/Filed)
110kts
Departed: 30-Oct-22 04:18 PM
Arrived: 30-Oct-22 06:12 PM
Distance/Time
Traveled:
206nm/1:54
Distance/Time
To Go:
Arrived

Flight Plot

Page will automatically refresh every two minutes.

Flight plan parsing failed; only flown route is shown


Map Options




Map Legend


Flown Route
Filed Route
Departure Airport
Arrival Airport
Navaid (VOR, NDB)
Fix

Horizontal Profiles

Position Reports

Time Latitude Longitude Heading Altitude Ground
Speed
30-Oct-22 16:03 48.793450 -122.533100 51 171ft 0kts
30-Oct-22 16:04 48.793450 -122.533100 51 171ft 0kts
30-Oct-22 16:05 48.793450 -122.533100 51 171ft 0kts
30-Oct-22 16:06 48.793450 -122.533100 51 171ft 0kts
30-Oct-22 16:07 48.793450 -122.533100 51 171ft 0kts
30-Oct-22 16:08 48.793450 -122.533100 51 171ft 0kts
30-Oct-22 16:09 48.793450 -122.533100 51 171ft 0kts
30-Oct-22 16:10 48.793450 -122.533100 51 171ft 0kts
30-Oct-22 16:11 48.793606 -122.533185 256 171ft 2kts
30-Oct-22 16:12 48.793835 -122.534799 321 171ft 6kts
30-Oct-22 16:13 48.796402 -122.535840 0 171ft 13kts
30-Oct-22 16:14 48.800736 -122.535715 5 171ft 17kts
30-Oct-22 16:15 48.801188 -122.536304 199 171ft 0kts
30-Oct-22 16:16 48.801776 -122.536304 274 171ft 0kts
30-Oct-22 16:17 48.801130 -122.537561 180 171ft 16kts
30-Oct-22 16:18 48.782443 -122.538112 182 651ft 83kts
30-Oct-22 16:19 48.761798 -122.538508 177 1543ft 74kts
30-Oct-22 16:20 48.742578 -122.524223 142 2289ft 81kts
30-Oct-22 16:21 48.726388 -122.500749 137 3032ft 84kts
30-Oct-22 16:21 48.711607 -122.481740 139 3671ft 79kts
30-Oct-22 16:22 48.694681 -122.461655 146 4372ft 77kts
30-Oct-22 16:24 48.672385 -122.439201 141 5095ft 81kts
30-Oct-22 16:25 48.654297 -122.418053 142 5668ft 87kts
30-Oct-22 16:26 48.635801 -122.397637 146 6310ft 79kts
30-Oct-22 16:26 48.621117 -122.382413 140 6797ft 74kts
30-Oct-22 16:27 48.604130 -122.362256 146 7368ft 77kts
30-Oct-22 16:28 48.586532 -122.343062 149 7944ft 79kts
30-Oct-22 16:29 48.568255 -122.325825 135 8481ft 82kts
30-Oct-22 16:31 48.549235 -122.298207 145 9110ft 82kts
30-Oct-22 16:31 48.533362 -122.282271 147 9537ft 82kts
30-Oct-22 16:32 48.514079 -122.263440 147 10026ft 83kts
30-Oct-22 16:33 48.494670 -122.244490 147 10491ft 83kts
30-Oct-22 16:34 48.475245 -122.225349 137 10931ft 84kts
30-Oct-22 16:35 48.474019 -122.191209 83 11347ft 84kts
30-Oct-22 16:36 48.476727 -122.156076 84 11746ft 84kts
30-Oct-22 16:37 48.479237 -122.120680 84 12125ft 85kts
30-Oct-22 16:38 48.481825 -122.083946 84 12312ft 105kts
30-Oct-22 16:39 48.485382 -122.031407 84 11817ft 137kts
30-Oct-22 16:40 48.489356 -121.973882 84 11485ft 130kts
30-Oct-22 16:41 48.492904 -121.922867 84 11487ft 117kts
30-Oct-22 16:42 48.496154 -121.874592 84 11491ft 115kts
30-Oct-22 16:43 48.499616 -121.823969 84 11493ft 125kts
30-Oct-22 16:44 48.503184 -121.770945 84 11491ft 127kts
30-Oct-22 16:45 48.497924 -121.718407 104 11491ft 128kts
30-Oct-22 16:46 48.488685 -121.666315 104 11490ft 128kts
30-Oct-22 16:47 48.479605 -121.614248 104 11490ft 128kts
30-Oct-22 16:48 48.470575 -121.562350 104 11489ft 127kts
30-Oct-22 16:49 48.461629 -121.511077 104 11490ft 126kts
30-Oct-22 16:50 48.452706 -121.460057 104 11490ft 126kts
30-Oct-22 16:51 48.443103 -121.409452 113 11491ft 125kts
30-Oct-22 16:52 48.428903 -121.363339 114 11619ft 120kts
30-Oct-22 16:53 48.414284 -121.316832 115 11619ft 124kts
30-Oct-22 16:54 48.399443 -121.269500 115 11619ft 125kts
30-Oct-22 16:55 48.384541 -121.222004 115 11619ft 125kts
30-Oct-22 16:56 48.380614 -121.170315 89 11619ft 125kts
30-Oct-22 16:57 48.380773 -121.117839 90 11618ft 125kts
30-Oct-22 16:58 48.380723 -121.065182 90 11618ft 125kts
30-Oct-22 16:59 48.380598 -121.012617 90 11618ft 125kts
30-Oct-22 17:00 48.380446 -120.959928 90 11618ft 125kts
30-Oct-22 17:01 48.380272 -120.907293 90 11618ft 125kts
30-Oct-22 17:02 48.380074 -120.854860 90 11618ft 125kts
30-Oct-22 17:03 48.379850 -120.802133 90 11618ft 125kts
30-Oct-22 17:04 48.379700 -120.749607 88 11618ft 125kts
30-Oct-22 17:05 48.381995 -120.696998 85 11618ft 125kts
30-Oct-22 17:06 48.384276 -120.644580 86 11618ft 125kts
30-Oct-22 17:07 48.386389 -120.592086 86 11618ft 125kts
30-Oct-22 17:08 48.388470 -120.539424 86 11618ft 126kts
30-Oct-22 17:09 48.390516 -120.487048 86 11618ft 126kts
30-Oct-22 17:10 48.391566 -120.434448 91 11618ft 126kts
30-Oct-22 17:11 48.390201 -120.381700 91 11618ft 126kts
30-Oct-22 17:12 48.388786 -120.329133 92 11618ft 126kts
30-Oct-22 17:13 48.387354 -120.276476 92 11618ft 126kts
30-Oct-22 17:14 48.385879 -120.223251 92 11556ft 129kts
30-Oct-22 17:15 48.384365 -120.168921 92 11554ft 130kts
30-Oct-22 17:16 48.381358 -120.114902 101 11555ft 130kts
30-Oct-22 17:17 48.373776 -120.061789 102 11554ft 130kts
30-Oct-22 17:18 48.366103 -120.008767 102 11554ft 130kts
30-Oct-22 17:19 48.358433 -119.955566 102 11554ft 130kts
30-Oct-22 17:20 48.350769 -119.902540 102 11554ft 130kts
30-Oct-22 17:21 48.343081 -119.849541 102 11554ft 130kts
30-Oct-22 17:22 48.335362 -119.796511 102 11554ft 130kts
30-Oct-22 17:23 48.327600 -119.743375 102 11554ft 130kts
30-Oct-22 17:24 48.319842 -119.690443 102 11554ft 130kts
30-Oct-22 17:25 48.312044 -119.637421 102 11554ft 130kts
30-Oct-22 17:26 48.304210 -119.584339 102 11554ft 130kts
30-Oct-22 17:27 48.296379 -119.531461 102 11554ft 130kts
30-Oct-22 17:28 48.289037 -119.478224 99 11554ft 130kts
30-Oct-22 17:29 48.283106 -119.424719 99 11554ft 130kts
30-Oct-22 17:30 48.276966 -119.371223 99 11554ft 130kts
30-Oct-22 17:31 48.270738 -119.317722 100 11554ft 130kts
30-Oct-22 17:32 48.264479 -119.264214 100 11554ft 130kts
30-Oct-22 17:33 48.258197 -119.210718 100 11554ft 130kts
30-Oct-22 17:34 48.251900 -119.157321 100 11554ft 130kts
30-Oct-22 17:35 48.245577 -119.103930 100 11554ft 130kts
30-Oct-22 17:36 48.239164 -119.050034 100 11445ft 136kts
30-Oct-22 17:37 48.232424 -118.994434 100 10946ft 135kts
30-Oct-22 17:38 48.225716 -118.938684 100 10446ft 135kts
30-Oct-22 17:39 48.218859 -118.883018 101 9948ft 136kts
30-Oct-22 17:40 48.210981 -118.827470 103 9396ft 138kts
30-Oct-22 17:41 48.201872 -118.772727 105 8694ft 134kts
30-Oct-22 17:42 48.191492 -118.718834 107 7993ft 134kts
30-Oct-22 17:43 48.182675 -118.665112 102 7554ft 128kts
30-Oct-22 17:44 48.174637 -118.613652 103 7554ft 126kts
30-Oct-22 17:45 48.166328 -118.562772 103 7554ft 125kts
30-Oct-22 17:46 48.157937 -118.511816 103 7554ft 125kts
30-Oct-22 17:47 48.149571 -118.461165 103 7554ft 125kts
30-Oct-22 17:48 48.141138 -118.410263 103 7554ft 125kts
30-Oct-22 17:49 48.132713 -118.359560 103 7554ft 125kts
30-Oct-22 17:50 48.124312 -118.309160 104 7554ft 125kts
30-Oct-22 17:51 48.115809 -118.258241 104 7474ft 132kts
30-Oct-22 17:52 48.106271 -118.201410 104 6905ft 142kts
30-Oct-22 17:53 48.097106 -118.147063 104 6281ft 130kts
30-Oct-22 17:54 48.088311 -118.094916 104 5677ft 128kts
30-Oct-22 17:55 48.079981 -118.045352 104 5583ft 123kts
30-Oct-22 17:56 48.071403 -117.994854 104 5479ft 128kts
30-Oct-22 17:57 48.062708 -117.944038 104 4972ft 125kts
30-Oct-22 17:58 48.053162 -117.894904 106 4384ft 121kts
30-Oct-22 17:59 48.043723 -117.846967 106 3782ft 119kts
30-Oct-22 18:00 48.034883 -117.801676 106 3590ft 114kts
30-Oct-22 18:01 48.025093 -117.751859 106 3584ft 130kts
30-Oct-22 18:02 48.014882 -117.699665 102 3582ft 131kts
30-Oct-22 18:03 48.007174 -117.646493 106 3593ft 124kts
30-Oct-22 18:04 47.994258 -117.605205 114 3466ft 109kts
30-Oct-22 18:05 47.983303 -117.561680 111 3073ft 105kts
30-Oct-22 18:06 47.980928 -117.521185 94 3040ft 96kts
30-Oct-22 18:07 47.980318 -117.529513 0 2911ft 101kts
30-Oct-22 18:08 47.996587 -117.511191 150 3042ft 81kts
30-Oct-22 18:09 48.001898 -117.526399 316 2886ft 87kts
30-Oct-22 18:10 47.987417 -117.536619 148 2455ft 74kts
30-Oct-22 18:11 47.976505 -117.525253 152 2151ft 24kts
30-Oct-22 18:12 47.975938 -117.524573 324 2151ft 0kts
30-Oct-22 18:13 47.975938 -117.524573 324 2151ft 0kts
30-Oct-22 18:14 47.975938 -117.524573 324 2151ft 0kts
30-Oct-22 18:15 47.975938 -117.524573 324 2151ft 0kts
30-Oct-22 18:16 47.975938 -117.524573 324 2151ft 0kts

Navigation Log

Ident Type
Flight plan parsing failed, navigation log unavailable